createdAt,value
2022-12-08T00:01:22.258Z,4.73
2022-12-08T00:03:49.545Z,4.82
2022-12-08T00:06:44.826Z,4.68
2022-12-08T00:09:22.166Z,4.74
2022-12-08T00:11:58.082Z,4.74
2022-12-08T00:14:37.678Z,4.64
2022-12-08T00:17:06.686Z,4.69
2022-12-08T00:19:34.277Z,4.76
2022-12-08T00:22:01.773Z,4.78
2022-12-08T00:24:35.061Z,4.51
2022-12-08T00:27:02.853Z,4.57
2022-12-08T00:29:29.852Z,4.76
2022-12-08T00:31:57.099Z,4.72
2022-12-08T00:34:24.170Z,4.33
2022-12-08T00:36:51.297Z,4.79
2022-12-08T00:39:18.887Z,4.73
2022-12-08T00:42:04.398Z,4.80
2022-12-08T00:44:31.619Z,4.72
2022-12-08T00:46:58.977Z,4.82
2022-12-08T00:49:25.897Z,4.82
2022-12-08T00:51:53.032Z,4.79
2022-12-08T00:54:20.805Z,4.87
2022-12-08T00:56:48.049Z,4.78
2022-12-08T00:59:15.240Z,4.88
2022-12-08T01:01:45.433Z,4.88
2022-12-08T01:04:17.571Z,4.79
2022-12-08T01:06:45.268Z,4.93
2022-12-08T01:09:13.803Z,4.90
2022-12-08T01:11:40.962Z,4.96
2022-12-08T01:14:07.812Z,5.02
2022-12-08T01:16:36.976Z,5.08
2022-12-08T01:19:04.319Z,5.07
2022-12-08T01:21:31.337Z,5.10
2022-12-08T01:24:00.166Z,5.14
2022-12-08T01:26:27.166Z,4.85
2022-12-08T01:28:54.708Z,5.19
2022-12-08T01:31:24.371Z,5.10
2022-12-08T01:33:51.364Z,5.18
2022-12-08T01:36:24.917Z,5.09
2022-12-08T01:38:52.940Z,5.18
2022-12-08T01:41:23.000Z,5.14
2022-12-08T01:44:08.945Z,5.17
2022-12-08T01:46:39.132Z,5.14
2022-12-08T01:49:23.168Z,5.15
2022-12-08T01:52:03.665Z,5.13
2022-12-08T01:54:37.084Z,5.09
2022-12-08T01:57:10.195Z,4.92
2022-12-08T01:59:42.025Z,4.86
2022-12-08T02:02:11.559Z,5.07
2022-12-08T02:04:38.891Z,5.04
2022-12-08T02:07:08.504Z,4.97
2022-12-08T02:09:38.594Z,4.92
2022-12-08T02:12:05.815Z,4.84
2022-12-08T02:14:52.716Z,4.87
2022-12-08T02:17:37.436Z,4.72
2022-12-08T02:20:29.533Z,4.82
2022-12-08T02:23:05.374Z,4.80
2022-12-08T02:25:38.330Z,4.78
2022-12-08T02:28:35.585Z,4.69
2022-12-08T02:31:28.116Z,4.60
2022-12-08T02:34:10.881Z,4.72
2022-12-08T02:36:49.278Z,4.50
2022-12-08T02:39:55.574Z,4.49
2022-12-08T02:42:47.067Z,4.52
2022-12-08T02:45:30.277Z,4.56
2022-12-08T02:47:59.201Z,4.29
2022-12-08T02:50:27.677Z,4.35
2022-12-08T02:52:54.896Z,4.37
2022-12-08T02:55:29.556Z,4.39
2022-12-08T02:58:11.817Z,4.40
2022-12-08T03:00:57.296Z,4.20
2022-12-08T03:03:35.729Z,4.13
2022-12-08T03:06:09.373Z,4.26
2022-12-08T03:08:51.803Z,4.16
2022-12-08T03:11:31.857Z,4.03
2022-12-08T03:14:01.825Z,3.28
2022-12-08T03:16:30.831Z,4.34
2022-12-08T03:19:12.078Z,4.23
2022-12-08T03:21:41.340Z,4.32
2022-12-08T03:24:10.868Z,4.37
2022-12-08T03:26:50.235Z,4.34
2022-12-08T03:29:18.056Z,4.23
2022-12-08T03:31:54.200Z,4.15
2022-12-08T03:34:23.576Z,4.30
2022-12-08T03:36:50.478Z,4.23
2022-12-08T03:39:17.407Z,4.31
2022-12-08T03:41:45.597Z,4.26
2022-12-08T03:44:12.628Z,4.32
2022-12-08T03:46:39.653Z,4.34
2022-12-08T03:49:06.837Z,4.33
2022-12-08T03:51:33.814Z,4.44
2022-12-08T03:54:00.848Z,4.42
2022-12-08T03:56:37.305Z,4.13
2022-12-08T03:59:05.603Z,4.32
2022-12-08T04:01:33.004Z,4.28
2022-12-08T04:04:00.189Z,4.39
2022-12-08T04:06:27.154Z,4.35
2022-12-08T04:08:54.209Z,4.38
2022-12-08T04:11:21.447Z,4.27
2022-12-08T04:13:48.782Z,4.43
2022-12-08T04:16:19.085Z,4.46
2022-12-08T04:18:46.226Z,4.40
2022-12-08T04:21:13.712Z,4.28
2022-12-08T04:23:40.707Z,4.32
2022-12-08T04:26:08.017Z,4.36
2022-12-08T04:28:35.366Z,4.23
2022-12-08T04:31:02.975Z,4.42
2022-12-08T04:33:29.974Z,4.44
2022-12-08T04:35:56.970Z,4.35
2022-12-08T04:38:24.099Z,4.43
2022-12-08T04:40:51.035Z,4.49
2022-12-08T04:43:18.177Z,4.47
2022-12-08T04:45:48.127Z,4.51
2022-12-08T04:48:15.579Z,4.60
2022-12-08T04:50:44.391Z,4.63
2022-12-08T04:53:13.097Z,4.63
2022-12-08T04:55:45.029Z,4.55
2022-12-08T04:58:14.089Z,4.71
2022-12-08T05:00:41.890Z,4.68
2022-12-08T05:03:09.415Z,4.78
2022-12-08T05:05:36.441Z,4.80
2022-12-08T05:08:03.527Z,4.62
2022-12-08T05:10:30.455Z,4.83
2022-12-08T05:12:58.822Z,4.72
2022-12-08T05:15:25.871Z,4.88
2022-12-08T05:17:53.167Z,4.76
2022-12-08T05:20:20.103Z,4.78
2022-12-08T05:22:47.259Z,4.71
2022-12-08T05:25:15.016Z,4.76
2022-12-08T05:27:43.163Z,4.83
2022-12-08T05:30:11.064Z,4.86
2022-12-08T05:32:37.957Z,4.82
2022-12-08T05:35:05.570Z,4.85
2022-12-08T05:37:32.465Z,4.79
2022-12-08T05:39:59.325Z,4.60
2022-12-08T05:42:26.336Z,4.74
2022-12-08T05:44:53.381Z,4.59
2022-12-08T05:47:20.556Z,4.69
2022-12-08T05:49:47.755Z,4.70
2022-12-08T05:52:16.894Z,4.63
2022-12-08T05:54:44.322Z,4.64
2022-12-08T05:57:11.657Z,4.62
2022-12-08T05:59:39.762Z,4.33
2022-12-08T06:02:08.868Z,4.55
2022-12-08T06:04:36.755Z,4.60
2022-12-08T06:07:03.772Z,4.32
2022-12-08T06:09:31.017Z,4.47
2022-12-08T06:11:57.919Z,4.51
2022-12-08T06:14:25.528Z,4.45
2022-12-08T06:16:52.901Z,4.54
2022-12-08T06:19:20.363Z,4.23
2022-12-08T06:21:47.202Z,4.45
2022-12-08T06:24:15.498Z,4.48
2022-12-08T06:26:43.460Z,4.50
2022-12-08T06:29:10.611Z,4.55
2022-12-08T06:31:37.594Z,4.60
2022-12-08T06:34:05.010Z,4.62
2022-12-08T06:36:32.334Z,4.73
2022-12-08T06:39:00.599Z,4.79
2022-12-08T06:41:27.691Z,4.85
2022-12-08T06:43:58.079Z,4.91
2022-12-08T06:46:25.423Z,4.95
2022-12-08T06:48:53.220Z,4.97
2022-12-08T06:51:23.815Z,4.97
2022-12-08T06:53:50.893Z,5.05
2022-12-08T06:56:20.379Z,5.08
2022-12-08T06:58:52.560Z,5.07
2022-12-08T07:01:20.574Z,4.98
2022-12-08T07:03:48.095Z,4.86
2022-12-08T07:06:18.220Z,5.20
2022-12-08T07:08:45.348Z,5.14
2022-12-08T07:11:18.071Z,5.27
2022-12-08T07:13:48.254Z,5.13
2022-12-08T07:16:15.433Z,5.11
2022-12-08T07:18:44.053Z,5.20
2022-12-08T07:21:13.363Z,5.21
2022-12-08T07:23:40.844Z,5.28
2022-12-08T07:26:10.529Z,5.26
2022-12-08T07:28:39.035Z,5.20
2022-12-08T07:31:07.276Z,5.36
2022-12-08T07:33:36.068Z,5.39
2022-12-08T07:36:06.847Z,5.35
2022-12-08T07:38:34.262Z,5.41
2022-12-08T07:41:01.628Z,5.40
2022-12-08T07:43:28.957Z,5.54
2022-12-08T07:45:56.427Z,5.59
2022-12-08T07:48:23.477Z,5.59
2022-12-08T07:50:50.770Z,5.68
2022-12-08T07:53:17.841Z,5.33
2022-12-08T07:55:45.069Z,5.77
2022-12-08T07:58:12.282Z,5.62
2022-12-08T08:00:39.300Z,5.66
2022-12-08T08:03:06.635Z,5.81
2022-12-08T08:05:33.806Z,5.83
2022-12-08T08:08:00.825Z,5.81
2022-12-08T08:10:28.538Z,5.71
2022-12-08T08:12:59.809Z,5.89
2022-12-08T08:15:27.765Z,6.03
2022-12-08T08:17:54.729Z,5.90
2022-12-08T08:20:22.342Z,6.14
2022-12-08T08:22:51.657Z,6.21
2022-12-08T08:25:20.461Z,6.20
2022-12-08T08:27:49.233Z,6.43
2022-12-08T08:30:20.380Z,6.56
2022-12-08T08:32:50.020Z,6.60
2022-12-08T08:35:17.073Z,6.74
2022-12-08T08:37:48.805Z,6.78
2022-12-08T08:40:18.129Z,6.86
2022-12-08T08:42:45.315Z,6.88
2022-12-08T08:45:12.497Z,6.87
2022-12-08T08:47:39.553Z,6.94
2022-12-08T08:50:07.654Z,7.00
2022-12-08T08:52:34.870Z,6.74
2022-12-08T08:55:02.101Z,7.06
2022-12-08T08:57:31.103Z,7.14
2022-12-08T08:59:57.982Z,7.24
2022-12-08T09:02:26.033Z,7.31
2022-12-08T09:04:53.461Z,7.41
2022-12-08T09:07:20.513Z,7.38
2022-12-08T09:09:47.933Z,7.56
2022-12-08T09:12:15.053Z,7.49
2022-12-08T09:14:41.987Z,7.75
2022-12-08T09:17:10.050Z,7.78
2022-12-08T09:19:37.309Z,7.99
2022-12-08T09:22:06.014Z,8.05
2022-12-08T09:24:33.205Z,8.18
2022-12-08T09:27:00.347Z,8.32
2022-12-08T09:29:32.524Z,8.46
2022-12-08T09:32:03.777Z,8.51
2022-12-08T09:34:31.848Z,8.47
2022-12-08T09:36:59.963Z,8.32
2022-12-08T09:39:27.267Z,8.30
2022-12-08T09:42:01.253Z,8.59
2022-12-08T09:44:50.660Z,8.69
2022-12-08T09:47:35.304Z,8.54
2022-12-08T09:50:27.810Z,8.70
2022-12-08T09:53:03.995Z,8.69
2022-12-08T09:56:03.990Z,8.70
2022-12-08T09:58:56.543Z,8.77
2022-12-08T10:01:29.918Z,8.80
2022-12-08T10:03:57.209Z,8.66
2022-12-08T10:06:39.569Z,8.87
2022-12-08T10:09:42.843Z,9.06
2022-12-08T10:12:22.505Z,9.10
2022-12-08T10:15:22.983Z,9.22
2022-12-08T10:17:51.341Z,9.28
2022-12-08T10:20:24.669Z,9.28
2022-12-08T10:23:07.354Z,9.36
2022-12-08T10:25:43.165Z,9.32
2022-12-08T10:28:11.916Z,9.45
2022-12-08T10:30:39.400Z,9.53
2022-12-08T10:33:14.199Z,9.61
2022-12-08T10:35:51.296Z,9.67
2022-12-08T10:38:19.905Z,9.66
2022-12-08T10:40:48.572Z,9.58
2022-12-08T10:43:21.742Z,9.65
2022-12-08T10:45:49.386Z,9.76
2022-12-08T10:48:16.238Z,9.88
2022-12-08T10:50:47.252Z,9.87
2022-12-08T10:53:20.958Z,9.76
2022-12-08T10:55:51.810Z,9.73
2022-12-08T10:58:41.222Z,9.80
2022-12-08T11:01:21.211Z,9.72
2022-12-08T11:03:59.327Z,9.76
2022-12-08T11:06:37.054Z,9.77
2022-12-08T11:09:24.169Z,9.75
2022-12-08T11:12:07.517Z,9.80
2022-12-08T11:14:43.722Z,9.88
2022-12-08T11:17:10.936Z,9.90
2022-12-08T11:19:40.375Z,9.95
2022-12-08T11:22:27.761Z,9.98
2022-12-08T11:25:12.857Z,10.03
2022-12-08T11:27:46.589Z,10.09
2022-12-08T11:30:20.363Z,10.19
2022-12-08T11:32:51.121Z,10.13
2022-12-08T11:35:30.225Z,10.35
2022-12-08T11:38:21.627Z,10.35
2022-12-08T11:40:54.551Z,10.42
2022-12-08T11:43:30.971Z,10.57
2022-12-08T11:46:02.496Z,10.71
2022-12-08T11:48:37.407Z,10.82
2022-12-08T11:51:14.462Z,10.93
2022-12-08T11:53:47.476Z,11.01
2022-12-08T11:56:22.065Z,11.16
2022-12-08T11:58:58.631Z,11.08
2022-12-08T12:01:26.736Z,11.22
2022-12-08T12:04:12.637Z,11.45
2022-12-08T12:06:56.626Z,11.35
2022-12-08T12:09:38.851Z,11.46
2022-12-08T12:12:39.287Z,11.42
2022-12-08T12:15:25.804Z,11.56
2022-12-08T12:18:16.471Z,11.58
2022-12-08T12:20:52.141Z,11.63
2022-12-08T12:23:44.920Z,11.64
2022-12-08T12:26:21.814Z,11.66
2022-12-08T12:29:02.816Z,11.63
2022-12-08T12:31:43.481Z,11.85
2022-12-08T12:34:24.407Z,11.93
2022-12-08T12:37:03.606Z,11.94
2022-12-08T12:39:35.567Z,11.87
2022-12-08T12:42:05.136Z,11.88
2022-12-08T12:44:32.448Z,12.11
2022-12-08T12:47:01.680Z,11.89
2022-12-08T12:49:41.072Z,12.12
2022-12-08T12:52:18.169Z,12.20
2022-12-08T12:55:10.891Z,12.18
2022-12-08T12:57:55.880Z,12.07
2022-12-08T13:00:27.676Z,11.82
2022-12-08T13:02:58.897Z,12.10
2022-12-08T13:05:52.977Z,12.04
2022-12-08T13:08:27.848Z,11.96
2022-12-08T13:11:09.943Z,11.95
2022-12-08T13:13:38.828Z,11.96
2022-12-08T13:16:18.439Z,11.99
2022-12-08T13:18:58.018Z,12.06
2022-12-08T13:21:39.102Z,11.97
2022-12-08T13:24:13.218Z,12.08
2022-12-08T13:26:44.667Z,12.10
2022-12-08T13:29:19.623Z,12.12
2022-12-08T13:31:58.308Z,11.99
2022-12-08T13:34:45.998Z,12.08
2022-12-08T13:37:16.333Z,12.01
2022-12-08T13:39:55.741Z,12.00
2022-12-08T13:42:44.298Z,11.99
2022-12-08T13:53:35.022Z,11.92
2022-12-08T13:55:12.988Z,11.92
2022-12-08T13:57:33.193Z,11.78
2022-12-08T14:00:06.692Z,11.49
2022-12-08T14:02:47.696Z,11.70
2022-12-08T14:05:21.700Z,11.43
2022-12-08T14:07:56.404Z,11.68
2022-12-08T14:10:30.653Z,11.36
2022-12-08T14:13:04.895Z,11.46
2022-12-08T14:15:38.565Z,10.98
2022-12-08T14:18:07.327Z,11.33
2022-12-08T14:20:57.786Z,11.33
2022-12-08T14:23:22.679Z,11.29
2022-12-08T14:25:49.840Z,11.24
2022-12-08T14:28:17.195Z,11.24
2022-12-08T14:30:45.032Z,11.05
2022-12-08T14:33:15.324Z,10.93
2022-12-08T14:35:43.008Z,10.76
2022-12-08T14:38:18.970Z,10.73
2022-12-08T14:41:09.025Z,10.89
2022-12-08T14:43:36.271Z,10.57
2022-12-08T14:46:19.282Z,10.95
2022-12-08T14:48:46.707Z,10.84
2022-12-08T14:51:19.744Z,10.69
2022-12-08T14:54:08.726Z,10.60
2022-12-08T14:56:53.576Z,10.33
2022-12-08T14:59:30.312Z,10.55
2022-12-08T15:02:16.030Z,10.46
2022-12-08T15:04:45.997Z,10.15
2022-12-08T15:07:17.452Z,10.42
2022-12-08T15:09:50.492Z,9.97
2022-12-08T15:12:27.014Z,10.27
2022-12-08T15:14:59.347Z,10.34
2022-12-08T15:17:45.406Z,10.28
2022-12-08T15:20:50.309Z,10.30
2022-12-08T15:23:25.295Z,10.24
2022-12-08T15:25:54.229Z,10.11
2022-12-08T15:28:29.429Z,9.57
2022-12-08T15:30:57.966Z,10.28
2022-12-08T15:33:25.816Z,10.14
2022-12-08T15:35:53.133Z,10.13
2022-12-08T15:38:26.601Z,9.96
2022-12-08T15:40:54.540Z,9.94
2022-12-08T15:43:22.247Z,9.88
2022-12-08T15:45:58.505Z,9.71
2022-12-08T15:48:30.509Z,9.79
2022-12-08T15:50:58.439Z,9.79
2022-12-08T15:53:25.750Z,9.76
2022-12-08T15:56:25.949Z,9.55
2022-12-08T15:58:57.023Z,9.76
2022-12-08T16:01:25.792Z,9.79
2022-12-08T16:07:20.845Z,9.49
2022-12-08T16:09:41.448Z,9.50
2022-12-08T16:13:48.133Z,9.43
2022-12-08T16:18:24.064Z,9.56
2022-12-08T16:21:09.564Z,9.55
2022-12-08T16:23:46.026Z,8.94
2022-12-08T16:26:49.091Z,9.58
2022-12-08T16:29:07.745Z,9.39
2022-12-08T16:31:35.203Z,9.55
2022-12-08T16:34:02.461Z,9.49
2022-12-08T16:36:29.474Z,9.50
2022-12-08T16:38:57.862Z,9.36
2022-12-08T16:41:44.008Z,9.50
2022-12-08T16:44:11.343Z,9.10
2022-12-08T16:46:38.337Z,9.39
2022-12-08T16:49:09.464Z,9.38
2022-12-08T16:51:36.893Z,9.34
2022-12-08T16:54:03.954Z,9.40
2022-12-08T16:56:33.438Z,9.32
2022-12-08T16:59:02.148Z,9.32
2022-12-08T17:01:29.544Z,9.24
2022-12-08T17:04:22.954Z,9.40
2022-12-08T17:06:43.867Z,9.26
2022-12-08T17:09:14.001Z,9.06
2022-12-08T17:11:43.289Z,8.65
2022-12-08T17:14:14.559Z,9.25
2022-12-08T17:16:43.146Z,9.32
2022-12-08T17:19:12.608Z,8.87
2022-12-08T17:21:39.666Z,9.07
2022-12-08T17:24:07.114Z,9.08
2022-12-08T17:26:34.276Z,9.06
2022-12-08T17:29:02.894Z,9.26
2022-12-08T17:31:32.232Z,8.21
2022-12-08T17:34:01.967Z,8.96
2022-12-08T17:36:29.410Z,8.73
2022-12-08T17:38:57.177Z,9.04
2022-12-08T17:41:24.472Z,9.05
2022-12-08T17:43:51.756Z,9.16
2022-12-08T17:46:19.988Z,8.96
2022-12-08T17:49:05.819Z,8.84
2022-12-08T17:51:33.301Z,8.81
2022-12-08T17:54:01.061Z,8.89
2022-12-08T17:56:28.071Z,8.95
2022-12-08T17:58:55.534Z,9.00
2022-12-08T18:01:24.445Z,9.00
2022-12-08T18:03:51.768Z,8.70
2022-12-08T18:06:19.163Z,8.90
2022-12-08T18:08:46.564Z,8.87
2022-12-08T18:11:17.712Z,8.65
2022-12-08T18:13:47.137Z,8.85
2022-12-08T18:16:15.421Z,8.81
2022-12-08T18:18:43.457Z,8.79
2022-12-08T18:21:11.180Z,8.59
2022-12-08T18:23:39.811Z,8.70
2022-12-08T18:26:08.654Z,8.74
2022-12-08T18:28:37.084Z,8.78
2022-12-08T18:31:12.527Z,8.52
2022-12-08T18:33:43.413Z,8.43
2022-12-08T18:36:11.665Z,8.70
2022-12-08T18:38:39.042Z,8.34
2022-12-08T18:41:08.589Z,8.73
2022-12-08T18:43:37.070Z,8.67
2022-12-08T18:46:07.945Z,8.66
2022-12-08T18:48:40.277Z,8.61
2022-12-08T18:51:12.259Z,8.47
2022-12-08T18:53:40.152Z,8.63
2022-12-08T18:56:08.324Z,8.62
2022-12-08T18:58:37.223Z,8.56
2022-12-08T19:01:04.773Z,8.45
2022-12-08T19:03:32.016Z,8.65
2022-12-08T19:06:05.753Z,8.57
2022-12-08T19:08:33.591Z,8.69
2022-12-08T19:11:00.741Z,8.50
2022-12-08T19:13:28.141Z,8.70
2022-12-08T19:15:55.138Z,8.51
2022-12-08T19:18:22.454Z,8.80
2022-12-08T19:20:49.874Z,8.68
2022-12-08T19:23:17.135Z,8.39
2022-12-08T19:25:44.393Z,8.65
2022-12-08T19:28:11.290Z,8.51
2022-12-08T19:30:38.922Z,8.41
2022-12-08T19:33:06.461Z,8.77
2022-12-08T19:35:33.522Z,8.31
2022-12-08T19:38:00.613Z,8.68
2022-12-08T19:41:00.408Z,8.27
2022-12-08T19:43:48.633Z,8.50
2022-12-08T19:46:17.360Z,8.27
2022-12-08T19:48:44.968Z,8.42
2022-12-08T19:51:12.089Z,8.43
2022-12-08T19:53:44.370Z,8.26
2022-12-08T19:56:14.202Z,8.31
2022-12-08T19:58:41.665Z,8.46
2022-12-08T20:01:08.908Z,8.44
2022-12-08T20:03:36.146Z,8.18
2022-12-08T20:06:04.572Z,7.59
2022-12-08T20:08:32.001Z,6.93
2022-12-08T20:10:59.451Z,7.45
2022-12-08T20:13:41.628Z,7.12
2022-12-08T20:16:08.728Z,7.91
2022-12-08T20:18:42.755Z,8.25
2022-12-08T20:21:12.178Z,8.12
2022-12-08T20:23:39.245Z,8.11
2022-12-08T20:26:09.777Z,8.29
2022-12-08T20:28:37.785Z,8.35
2022-12-08T20:31:05.558Z,8.08
2022-12-08T20:33:33.277Z,7.52
2022-12-08T20:36:02.294Z,8.09
2022-12-08T20:38:29.850Z,8.26
2022-12-08T20:40:58.326Z,8.14
2022-12-08T20:43:26.470Z,7.48
2022-12-08T20:45:53.609Z,7.44
2022-12-08T20:48:21.009Z,8.27
2022-12-08T20:50:51.728Z,8.16
2022-12-08T20:53:21.588Z,8.09
2022-12-08T20:55:48.606Z,7.78
2022-12-08T20:58:15.905Z,7.37
2022-12-08T21:00:43.251Z,7.62
2022-12-08T21:03:12.680Z,7.75
2022-12-08T21:05:40.385Z,7.79
2022-12-08T21:08:07.691Z,7.51
2022-12-08T21:10:39.145Z,7.19
2022-12-08T21:13:09.589Z,7.46
2022-12-08T21:15:36.984Z,6.76
2022-12-08T21:18:05.018Z,6.32
2022-12-08T21:20:32.689Z,7.37
2022-12-08T21:22:59.701Z,7.53
2022-12-08T21:25:27.391Z,7.55
2022-12-08T21:27:54.676Z,7.65
2022-12-08T21:30:22.771Z,7.62
2022-12-08T21:32:50.281Z,6.88
2022-12-08T21:35:17.660Z,7.63
2022-12-08T21:37:44.731Z,7.07
2022-12-08T21:40:12.784Z,7.26
2022-12-08T21:42:46.252Z,7.15
2022-12-08T21:45:16.963Z,7.25
2022-12-08T21:47:45.698Z,7.01
2022-12-08T21:50:15.024Z,6.80
2022-12-08T21:52:45.687Z,7.38
2022-12-08T21:55:15.070Z,7.17
2022-12-08T21:57:43.501Z,7.40
2022-12-08T22:00:15.430Z,7.31
2022-12-08T22:02:43.594Z,6.84
2022-12-08T22:05:11.548Z,7.17
2022-12-08T22:07:39.992Z,7.40
2022-12-08T22:10:09.201Z,7.37
2022-12-08T22:12:37.163Z,7.39
2022-12-08T22:15:06.605Z,7.11
2022-12-08T22:17:41.397Z,7.00
2022-12-08T22:20:12.928Z,7.29
2022-12-08T22:22:41.030Z,7.05
2022-12-08T22:25:12.621Z,7.23
2022-12-08T22:27:41.088Z,7.29
2022-12-08T22:30:10.627Z,7.04
2022-12-08T22:32:38.602Z,6.20
2022-12-08T22:35:06.557Z,6.96
2022-12-08T22:37:34.230Z,7.29
2022-12-08T22:40:01.444Z,7.22
2022-12-08T22:42:30.402Z,7.24
2022-12-08T22:44:57.809Z,7.24
2022-12-08T22:47:24.774Z,7.25
2022-12-08T22:49:52.391Z,7.28
2022-12-08T22:52:19.561Z,7.21
2022-12-08T22:54:47.328Z,6.00
2022-12-08T22:57:14.874Z,7.02
2022-12-08T22:59:42.646Z,6.46
2022-12-08T23:02:10.946Z,5.51
2022-12-08T23:04:38.770Z,6.15
2022-12-08T23:07:06.044Z,6.63
2022-12-08T23:09:33.315Z,6.87
2022-12-08T23:12:00.785Z,6.15
2022-12-08T23:14:28.175Z,6.92
2022-12-08T23:16:55.497Z,6.91
2022-12-08T23:19:22.713Z,6.74
2022-12-08T23:21:49.997Z,6.83
2022-12-08T23:24:17.439Z,6.73
2022-12-08T23:26:44.898Z,6.66
2022-12-08T23:29:12.120Z,6.46
2022-12-08T23:31:39.598Z,6.51
2022-12-08T23:34:07.386Z,6.67
2022-12-08T23:36:35.185Z,6.88
2022-12-08T23:39:02.428Z,5.76
2022-12-08T23:41:29.574Z,5.79
2022-12-08T23:43:56.477Z,6.54
2022-12-08T23:46:23.809Z,6.75
2022-12-08T23:48:51.668Z,6.74
2022-12-08T23:51:19.690Z,6.68
2022-12-08T23:53:47.107Z,6.75
2022-12-08T23:56:17.054Z,6.76
2022-12-08T23:58:45.068Z,6.48
